sensor_id;sensor_type;location;lat;lon;timestamp;pressure;altitude;pressure_sealevel;temperature;humidity
61874;BME280;49692;55.052;73.310;2022-08-19T00:01:51;100772.31;;;9.65;80.19
61874;BME280;49692;55.052;73.310;2022-08-19T00:04:20;100774.94;;;9.65;79.83
61874;BME280;49692;55.052;73.310;2022-08-19T00:06:48;100775.72;;;9.68;79.76
61874;BME280;49692;55.052;73.310;2022-08-19T00:09:17;100778.34;;;9.68;79.76
61874;BME280;49692;55.052;73.310;2022-08-19T00:11:44;100785.44;;;9.65;79.70
61874;BME280;49692;55.052;73.310;2022-08-19T00:14:15;100778.50;;;9.61;80.14
61874;BME280;49692;55.052;73.310;2022-08-19T00:16:46;100784.28;;;9.77;79.74
61874;BME280;49692;55.052;73.310;2022-08-19T00:19:14;100787.28;;;9.60;79.77
61874;BME280;49692;55.052;73.310;2022-08-19T00:21:41;100783.63;;;9.67;79.70
61874;BME280;49692;55.052;73.310;2022-08-19T00:24:12;100793.97;;;9.75;79.97
61874;BME280;49692;55.052;73.310;2022-08-19T00:26:42;100789.59;;;9.74;79.42
61874;BME280;49692;55.052;73.310;2022-08-19T00:29:11;100791.34;;;9.75;79.82
61874;BME280;49692;55.052;73.310;2022-08-19T00:31:40;100784.31;;;9.75;79.82
61874;BME280;49692;55.052;73.310;2022-08-19T00:34:09;100785.78;;;9.87;79.45
61874;BME280;49692;55.052;73.310;2022-08-19T00:36:35;100785.94;;;9.81;79.24
61874;BME280;49692;55.052;73.310;2022-08-19T00:39:03;100784.28;;;9.77;79.67
61874;BME280;49692;55.052;73.310;2022-08-19T00:41:31;100793.75;;;9.84;79.38
61874;BME280;49692;55.052;73.310;2022-08-19T00:44:07;100788.25;;;9.95;79.50
61874;BME280;49692;55.052;73.310;2022-08-19T00:46:43;100789.03;;;9.98;79.42
61874;BME280;49692;55.052;73.310;2022-08-19T00:49:18;100792.41;;;10.04;79.28
61874;BME280;49692;55.052;73.310;2022-08-19T00:51:47;100785.38;;;10.04;79.00
61874;BME280;49692;55.052;73.310;2022-08-19T00:54:16;100785.72;;;9.90;79.45
61874;BME280;49692;55.052;73.310;2022-08-19T00:56:43;100785.06;;;9.80;79.69
61874;BME280;49692;55.052;73.310;2022-08-19T00:59:14;100780.44;;;9.92;79.40
61874;BME280;49692;55.052;73.310;2022-08-19T01:01:43;100779.41;;;9.99;79.19
61874;BME280;49692;55.052;73.310;2022-08-19T01:04:10;100787.34;;;9.94;79.43
61874;BME280;49692;55.052;73.310;2022-08-19T01:06:42;100778.50;;;9.98;78.89
61874;BME280;49692;55.052;73.310;2022-08-19T01:09:09;100779.09;;;10.10;78.99
61874;BME280;49692;55.052;73.310;2022-08-19T01:11:39;100774.69;;;10.12;78.91
61874;BME280;49692;55.052;73.310;2022-08-19T01:14:10;100773.66;;;10.18;78.96
61874;BME280;49692;55.052;73.310;2022-08-19T01:16:40;100774.03;;;10.02;79.10
61874;BME280;49692;55.052;73.310;2022-08-19T01:19:20;100767.38;;;10.23;78.79
61874;BME280;49692;55.052;73.310;2022-08-19T01:24:40;100771.22;;;10.10;78.82
61874;BME280;49692;55.052;73.310;2022-08-19T01:27:07;100771.16;;;10.13;78.66
61874;BME280;49692;55.052;73.310;2022-08-19T01:29:39;100769.09;;;10.24;78.64
61874;BME280;49692;55.052;73.310;2022-08-19T01:32:07;100775.47;;;10.15;79.12
61874;BME280;49692;55.052;73.310;2022-08-19T01:34:34;100775.09;;;9.95;79.56
61874;BME280;49692;55.052;73.310;2022-08-19T01:37:08;100761.72;;;10.06;79.53
61874;BME280;49692;55.052;73.310;2022-08-19T01:39:47;100765.31;;;10.00;79.46
61874;BME280;49692;55.052;73.310;2022-08-19T01:42:14;100773.94;;;10.07;79.52
61874;BME280;49692;55.052;73.310;2022-08-19T01:44:40;100766.91;;;10.07;79.64
61874;BME280;49692;55.052;73.310;2022-08-19T01:47:08;100769.41;;;10.13;79.49
61874;BME280;49692;55.052;73.310;2022-08-19T01:49:37;100771.41;;;10.04;79.77
61874;BME280;49692;55.052;73.310;2022-08-19T01:52:05;100772.03;;;10.13;79.49
61874;BME280;49692;55.052;73.310;2022-08-19T01:54:32;100763.19;;;10.16;79.64
61874;BME280;49692;55.052;73.310;2022-08-19T01:57:11;100763.56;;;10.37;79.12
61874;BME280;49692;55.052;73.310;2022-08-19T01:59:40;100754.22;;;10.25;79.61
61874;BME280;49692;55.052;73.310;2022-08-19T02:02:07;100763.66;;;10.32;79.20
61874;BME280;49692;55.052;73.310;2022-08-19T02:04:35;100759.16;;;10.37;79.03
61874;BME280;49692;55.052;73.310;2022-08-19T02:07:06;100750.38;;;10.38;78.37
61874;BME280;49692;55.052;73.310;2022-08-19T02:09:34;100755.81;;;10.30;78.87
61874;BME280;49692;55.052;73.310;2022-08-19T02:12:03;100751.75;;;10.52;78.65
61874;BME280;49692;55.052;73.310;2022-08-19T02:14:34;100750.81;;;10.54;78.39
61874;BME280;49692;55.052;73.310;2022-08-19T02:17:11;100752.03;;;10.41;78.59
61874;BME280;49692;55.052;73.310;2022-08-19T02:19:39;100749.41;;;10.41;78.34
61874;BME280;49692;55.052;73.310;2022-08-19T02:22:11;100756.41;;;10.42;78.24
61874;BME280;49692;55.052;73.310;2022-08-19T02:24:37;100759.84;;;10.44;77.98
61874;BME280;49692;55.052;73.310;2022-08-19T02:27:05;100763.22;;;10.49;77.77
61874;BME280;49692;55.052;73.310;2022-08-19T02:29:32;100760.63;;;10.48;77.68
61874;BME280;49692;55.052;73.310;2022-08-19T02:31:59;100756.25;;;10.48;77.51
61874;BME280;49692;55.052;73.310;2022-08-19T02:34:25;100762.41;;;10.47;78.05
61874;BME280;49692;55.052;73.310;2022-08-19T02:36:53;100765.88;;;10.49;77.72
61874;BME280;49692;55.052;73.310;2022-08-19T02:39:20;100775.38;;;10.53;77.57
61874;BME280;49692;55.052;73.310;2022-08-19T02:41:47;100770.00;;;10.58;77.61
61874;BME280;49692;55.052;73.310;2022-08-19T02:44:26;100768.44;;;10.51;77.14
61874;BME280;49692;55.052;73.310;2022-08-19T02:46:54;100772.88;;;10.49;77.43
61874;BME280;49692;55.052;73.310;2022-08-19T02:49:21;100771.84;;;10.54;77.18
61874;BME280;49692;55.052;73.310;2022-08-19T02:51:48;100776.59;;;10.74;76.64
61874;BME280;49692;55.052;73.310;2022-08-19T02:54:16;100771.91;;;10.84;76.39
61874;BME280;49692;55.052;73.310;2022-08-19T02:56:43;100768.00;;;10.99;76.03
61874;BME280;49692;55.052;73.310;2022-08-19T02:59:10;100768.69;;;11.06;75.66
61874;BME280;49692;55.052;73.310;2022-08-19T03:01:39;100772.13;;;11.08;75.51
61874;BME280;49692;55.052;73.310;2022-08-19T03:04:13;100770.31;;;11.10;75.74
61874;BME280;49692;55.052;73.310;2022-08-19T03:06:42;100776.75;;;11.30;75.11
61874;BME280;49692;55.052;73.310;2022-08-19T03:09:10;100771.81;;;11.19;74.73
61874;BME280;49692;55.052;73.310;2022-08-19T03:11:37;100771.94;;;11.14;75.47
61874;BME280;49692;55.052;73.310;2022-08-19T03:14:06;100770.81;;;11.23;74.82
61874;BME280;49692;55.052;73.310;2022-08-19T03:16:36;100770.03;;;11.19;74.69
61874;BME280;49692;55.052;73.310;2022-08-19T03:19:07;100769.75;;;11.29;74.92
61874;BME280;49692;55.052;73.310;2022-08-19T03:21:34;100775.38;;;11.16;75.45
61874;BME280;49692;55.052;73.310;2022-08-19T03:24:05;100770.56;;;11.31;74.51
61874;BME280;49692;55.052;73.310;2022-08-19T03:26:33;100775.97;;;11.28;74.60
61874;BME280;49692;55.052;73.310;2022-08-19T03:29:05;100779.75;;;11.49;74.31
61874;BME280;49692;55.052;73.310;2022-08-19T03:31:31;100774.25;;;11.25;73.90
61874;BME280;49692;55.052;73.310;2022-08-19T03:33:59;100770.72;;;11.26;74.10
61874;BME280;49692;55.052;73.310;2022-08-19T03:36:26;100767.72;;;11.40;74.33
61874;BME280;49692;55.052;73.310;2022-08-19T03:38:58;100766.91;;;11.36;73.71
61874;BME280;49692;55.052;73.310;2022-08-19T03:41:32;100772.53;;;11.24;73.96
61874;BME280;49692;55.052;73.310;2022-08-19T03:44:09;100770.50;;;11.34;73.88
61874;BME280;49692;55.052;73.310;2022-08-19T03:46:37;100767.84;;;11.34;74.37
61874;BME280;49692;55.052;73.310;2022-08-19T03:49:04;100781.25;;;11.26;74.77
61874;BME280;49692;55.052;73.310;2022-08-19T03:51:36;100772.91;;;11.43;73.83
61874;BME280;49692;55.052;73.310;2022-08-19T03:54:06;100772.94;;;11.42;73.58
61874;BME280;49692;55.052;73.310;2022-08-19T03:56:37;100770.34;;;11.40;73.58
61874;BME280;49692;55.052;73.310;2022-08-19T03:59:12;100776.16;;;11.51;73.41
61874;BME280;49692;55.052;73.310;2022-08-19T04:01:40;100766.44;;;11.54;73.07
61874;BME280;49692;55.052;73.310;2022-08-19T04:04:15;100752.75;;;11.42;72.17
61874;BME280;49692;55.052;73.310;2022-08-19T04:06:44;100758.22;;;11.63;72.33
61874;BME280;49692;55.052;73.310;2022-08-19T04:09:21;100744.38;;;11.58;72.30
61874;BME280;49692;55.052;73.310;2022-08-19T04:12:02;100765.63;;;11.80;71.70
61874;BME280;49692;55.052;73.310;2022-08-19T04:15:08;100758.56;;;12.07;70.53
61874;BME280;49692;55.052;73.310;2022-08-19T04:17:47;100765.66;;;12.05;71.06
61874;BME280;49692;55.052;73.310;2022-08-19T04:20:18;100761.44;;;12.00;71.26
61874;BME280;49692;55.052;73.310;2022-08-19T04:22:49;100762.34;;;12.00;70.77
61874;BME280;49692;55.052;73.310;2022-08-19T04:25:21;100768.41;;;12.02;70.20
61874;BME280;49692;55.052;73.310;2022-08-19T04:27:48;100770.81;;;12.08;70.67
61874;BME280;49692;55.052;73.310;2022-08-19T04:30:15;100759.38;;;12.09;70.50
61874;BME280;49692;55.052;73.310;2022-08-19T04:32:46;100767.84;;;11.92;70.22
61874;BME280;49692;55.052;73.310;2022-08-19T04:35:23;100775.53;;;11.98;70.40
61874;BME280;49692;55.052;73.310;2022-08-19T04:37:53;100773.81;;;11.97;70.25
61874;BME280;49692;55.052;73.310;2022-08-19T04:40:29;100769.91;;;12.09;70.35
61874;BME280;49692;55.052;73.310;2022-08-19T04:43:15;100773.78;;;12.26;70.07
61874;BME280;49692;55.052;73.310;2022-08-19T04:45:45;100765.97;;;12.48;69.89
61874;BME280;49692;55.052;73.310;2022-08-19T04:48:22;100756.34;;;12.47;68.89
61874;BME280;49692;55.052;73.310;2022-08-19T04:50:57;100758.06;;;12.73;67.69
61874;BME280;49692;55.052;73.310;2022-08-19T04:53:30;100754.97;;;13.11;67.39
61874;BME280;49692;55.052;73.310;2022-08-19T04:56:08;100753.81;;;13.41;66.18
61874;BME280;49692;55.052;73.310;2022-08-19T04:58:38;100753.81;;;13.41;66.04
61874;BME280;49692;55.052;73.310;2022-08-19T05:01:07;100752.47;;;13.30;65.38
61874;BME280;49692;55.052;73.310;2022-08-19T05:03:37;100755.31;;;13.48;64.99
61874;BME280;49692;55.052;73.310;2022-08-19T05:06:06;100751.16;;;13.42;64.78
61874;BME280;49692;55.052;73.310;2022-08-19T05:08:35;100748.50;;;13.18;65.43
61874;BME280;49692;55.052;73.310;2022-08-19T05:11:14;100741.00;;;13.31;64.81
61874;BME280;49692;55.052;73.310;2022-08-19T05:13:52;100746.88;;;13.38;65.20
61874;BME280;49692;55.052;73.310;2022-08-19T05:16:20;100737.13;;;13.40;64.78
61874;BME280;49692;55.052;73.310;2022-08-19T05:18:49;100739.41;;;13.49;64.09
61874;BME280;49692;55.052;73.310;2022-08-19T05:21:35;100738.25;;;13.79;63.31
61874;BME280;49692;55.052;73.310;2022-08-19T05:24:22;100735.78;;;13.96;62.87
61874;BME280;49692;55.052;73.310;2022-08-19T05:26:51;100739.00;;;14.03;62.80
61874;BME280;49692;55.052;73.310;2022-08-19T05:29:29;100727.13;;;14.14;62.79
61874;BME280;49692;55.052;73.310;2022-08-19T05:31:58;100712.50;;;14.05;63.72
61874;BME280;49692;55.052;73.310;2022-08-19T05:34:26;100719.78;;;14.00;62.49
61874;BME280;49692;55.052;73.310;2022-08-19T05:36:57;100713.78;;;14.58;60.28
61874;BME280;49692;55.052;73.310;2022-08-19T05:39:26;100718.34;;;14.54;60.70
61874;BME280;49692;55.052;73.310;2022-08-19T05:41:58;100718.59;;;14.48;60.28
61874;BME280;49692;55.052;73.310;2022-08-19T05:44:38;100706.03;;;14.33;60.67
61874;BME280;49692;55.052;73.310;2022-08-19T05:47:06;100717.84;;;14.24;60.94
61874;BME280;49692;55.052;73.310;2022-08-19T05:49:36;100725.00;;;14.01;61.89
61874;BME280;49692;55.052;73.310;2022-08-19T05:52:08;100704.47;;;14.49;61.19
61874;BME280;49692;55.052;73.310;2022-08-19T05:54:39;100696.94;;;14.40;62.05
61874;BME280;49692;55.052;73.310;2022-08-19T05:57:18;100705.06;;;14.35;61.21
61874;BME280;49692;55.052;73.310;2022-08-19T05:59:56;100697.00;;;14.38;61.03
61874;BME280;49692;55.052;73.310;2022-08-19T06:02:28;100693.59;;;14.76;60.94
61874;BME280;49692;55.052;73.310;2022-08-19T06:04:56;100678.22;;;14.45;61.01
61874;BME280;49692;55.052;73.310;2022-08-19T06:07:24;100697.00;;;14.38;61.54
61874;BME280;49692;55.052;73.310;2022-08-19T06:09:51;100692.44;;;14.42;61.51
61874;BME280;49692;55.052;73.310;2022-08-19T06:12:23;100689.72;;;14.44;62.28
61874;BME280;49692;55.052;73.310;2022-08-19T06:14:56;100697.28;;;14.72;60.90
61874;BME280;49692;55.052;73.310;2022-08-19T06:17:23;100688.50;;;14.91;60.38
61874;BME280;49692;55.052;73.310;2022-08-19T06:19:52;100688.13;;;14.79;60.39
61874;BME280;49692;55.052;73.310;2022-08-19T06:22:21;100685.16;;;15.06;59.81
61874;BME280;49692;55.052;73.310;2022-08-19T06:24:48;100680.97;;;14.81;60.16
61874;BME280;49692;55.052;73.310;2022-08-19T06:27:28;100682.56;;;14.66;61.36
61874;BME280;49692;55.052;73.310;2022-08-19T06:29:58;100678.44;;;14.59;60.76
61874;BME280;49692;55.052;73.310;2022-08-19T06:32:24;100680.00;;;14.84;60.69
61874;BME280;49692;55.052;73.310;2022-08-19T06:34:51;100669.53;;;15.00;60.44
61874;BME280;49692;55.052;73.310;2022-08-19T06:37:18;100676.34;;;15.06;60.00
61874;BME280;49692;55.052;73.310;2022-08-19T06:39:45;100663.94;;;14.87;60.28
61874;BME280;49692;55.052;73.310;2022-08-19T06:42:15;100666.75;;;14.84;61.12
61874;BME280;49692;55.052;73.310;2022-08-19T06:44:48;100670.69;;;14.94;61.63
61874;BME280;49692;55.052;73.310;2022-08-19T06:47:21;100667.41;;;14.49;62.89
61874;BME280;49692;55.052;73.310;2022-08-19T06:49:49;100671.09;;;14.66;62.91
61874;BME280;49692;55.052;73.310;2022-08-19T06:52:36;100671.19;;;14.64;62.69
61874;BME280;49692;55.052;73.310;2022-08-19T06:55:11;100672.16;;;14.62;62.78
61874;BME280;49692;55.052;73.310;2022-08-19T06:57:45;100659.34;;;14.32;63.44
61874;BME280;49692;55.052;73.310;2022-08-19T07:00:19;100652.41;;;14.29;63.85
61874;BME280;49692;55.052;73.310;2022-08-19T07:02:46;100666.63;;;14.26;63.93
61874;BME280;49692;55.052;73.310;2022-08-19T07:05:18;100667.09;;;14.16;64.16
61874;BME280;49692;55.052;73.310;2022-08-19T07:07:44;100664.31;;;13.98;64.58
61874;BME280;49692;55.052;73.310;2022-08-19T07:10:18;100663.75;;;14.12;64.74
61874;BME280;49692;55.052;73.310;2022-08-19T07:12:46;100679.97;;;14.03;65.29
61874;BME280;49692;55.052;73.310;2022-08-19T07:19:24;100676.75;;;13.75;67.36
61874;BME280;49692;55.052;73.310;2022-08-19T07:22:03;100677.41;;;13.58;67.67
61874;BME280;49692;55.052;73.310;2022-08-19T07:24:33;100684.00;;;13.70;67.53
61874;BME280;49692;55.052;73.310;2022-08-19T07:27:01;100667.56;;;13.84;67.12
61874;BME280;49692;55.052;73.310;2022-08-19T07:29:35;100662.06;;;14.09;66.99
61874;BME280;49692;55.052;73.310;2022-08-19T07:32:04;100667.81;;;14.19;66.31
61874;BME280;49692;55.052;73.310;2022-08-19T07:34:40;100676.84;;;14.15;66.54
61874;BME280;49692;55.052;73.310;2022-08-19T07:37:07;100674.44;;;14.09;66.07
61874;BME280;49692;55.052;73.310;2022-08-19T07:39:37;100677.13;;;13.87;67.13
61874;BME280;49692;55.052;73.310;2022-08-19T07:42:09;100673.56;;;14.08;67.14
61874;BME280;49692;55.052;73.310;2022-08-19T07:44:41;100677.09;;;14.09;66.41
61874;BME280;49692;55.052;73.310;2022-08-19T07:47:15;100670.19;;;14.05;66.98
61874;BME280;49692;55.052;73.310;2022-08-19T07:49:56;100659.97;;;14.18;66.21
61874;BME280;49692;55.052;73.310;2022-08-19T07:52:36;100665.59;;;14.10;66.00
61874;BME280;49692;55.052;73.310;2022-08-19T07:55:23;100659.69;;;14.24;65.94
61874;BME280;49692;55.052;73.310;2022-08-19T07:58:00;100663.63;;;14.15;66.24
61874;BME280;49692;55.052;73.310;2022-08-19T08:00:27;100665.72;;;14.27;66.05
61874;BME280;49692;55.052;73.310;2022-08-19T08:03:00;100653.56;;;14.44;66.04
61874;BME280;49692;55.052;73.310;2022-08-19T08:05:28;100656.28;;;14.62;65.07
61874;BME280;49692;55.052;73.310;2022-08-19T08:08:26;100658.16;;;14.39;65.37
61874;BME280;49692;55.052;73.310;2022-08-19T08:11:19;100659.78;;;14.43;65.56
61874;BME280;49692;55.052;73.310;2022-08-19T08:13:48;100656.06;;;14.26;66.53
61874;BME280;49692;55.052;73.310;2022-08-19T08:16:28;100661.50;;;14.44;66.16
61874;BME280;49692;55.052;73.310;2022-08-19T08:19:07;100654.28;;;14.48;66.27
61874;BME280;49692;55.052;73.310;2022-08-19T08:21:41;100659.81;;;14.41;66.16
61874;BME280;49692;55.052;73.310;2022-08-19T08:24:17;100644.91;;;14.20;66.62
61874;BME280;49692;55.052;73.310;2022-08-19T08:26:51;100653.16;;;14.12;67.16
61874;BME280;49692;55.052;73.310;2022-08-19T08:29:26;100647.41;;;14.23;67.23
61874;BME280;49692;55.052;73.310;2022-08-19T08:32:06;100647.75;;;14.15;67.46
61874;BME280;49692;55.052;73.310;2022-08-19T08:34:33;100639.06;;;14.32;67.08
61874;BME280;49692;55.052;73.310;2022-08-19T08:37:00;100635.63;;;14.30;66.97
61874;BME280;49692;55.052;73.310;2022-08-19T08:39:26;100646.00;;;14.35;66.91
61874;BME280;49692;55.052;73.310;2022-08-19T08:45:06;100633.56;;;14.57;66.79
61874;BME280;49692;55.052;73.310;2022-08-19T08:47:45;100629.59;;;14.47;67.27
61874;BME280;49692;55.052;73.310;2022-08-19T08:50:31;100631.63;;;14.61;66.95
61874;BME280;49692;55.052;73.310;2022-08-19T08:53:21;100633.47;;;14.78;66.77
61874;BME280;49692;55.052;73.310;2022-08-19T08:55:48;100630.91;;;14.37;67.19
61874;BME280;49692;55.052;73.310;2022-08-19T08:58:54;100637.13;;;14.56;67.36
61874;BME280;49692;55.052;73.310;2022-08-19T09:01:17;100637.84;;;14.39;67.35
61874;BME280;49692;55.052;73.310;2022-08-19T09:03:45;100626.31;;;14.42;67.50
61874;BME280;49692;55.052;73.310;2022-08-19T09:06:29;100639.19;;;14.50;67.75
61874;BME280;49692;55.052;73.310;2022-08-19T09:14:43;100637.25;;;14.33;69.68
61874;BME280;49692;55.052;73.310;2022-08-19T09:17:15;100624.00;;;14.14;70.58
61874;BME280;49692;55.052;73.310;2022-08-19T09:22:40;100624.13;;;14.10;71.20
61874;BME280;49692;55.052;73.310;2022-08-19T09:25:15;100626.31;;;14.21;71.26
61874;BME280;49692;55.052;73.310;2022-08-19T09:27:47;100617.72;;;14.16;71.28
61874;BME280;49692;55.052;73.310;2022-08-19T09:30:25;100623.09;;;14.34;71.16
61874;BME280;49692;55.052;73.310;2022-08-19T09:32:52;100614.56;;;14.08;71.16
61874;BME280;49692;55.052;73.310;2022-08-19T09:35:29;100623.63;;;14.02;71.74
61874;BME280;49692;55.052;73.310;2022-08-19T09:37:57;100620.78;;;14.07;72.40
61874;BME280;49692;55.052;73.310;2022-08-19T09:40:29;100633.59;;;13.95;72.83
61874;BME280;49692;55.052;73.310;2022-08-19T09:43:08;100612.72;;;13.89;73.40
61874;BME280;49692;55.052;73.310;2022-08-19T09:45:37;100614.63;;;13.86;73.83
61874;BME280;49692;55.052;73.310;2022-08-19T09:48:06;100623.81;;;13.98;73.89
61874;BME280;49692;55.052;73.310;2022-08-19T09:50:33;100620.94;;;13.83;74.08
61874;BME280;49692;55.052;73.310;2022-08-19T09:53:06;100620.84;;;13.85;74.12
61874;BME280;49692;55.052;73.310;2022-08-19T09:55:33;100606.97;;;13.79;75.45
61874;BME280;49692;55.052;73.310;2022-08-19T09:58:03;100615.16;;;13.73;78.08
61874;BME280;49692;55.052;73.310;2022-08-19T10:00:30;100620.75;;;13.45;80.57
61874;BME280;49692;55.052;73.310;2022-08-19T10:02:58;100613.75;;;13.22;82.54
61874;BME280;49692;55.052;73.310;2022-08-19T10:05:31;100610.50;;;13.15;83.88
61874;BME280;49692;55.052;73.310;2022-08-19T10:08:19;100609.16;;;13.04;85.35
61874;BME280;49692;55.052;73.310;2022-08-19T10:10:47;100614.91;;;12.92;85.90
61874;BME280;49692;55.052;73.310;2022-08-19T10:13:28;100613.19;;;12.91;87.50
61874;BME280;49692;55.052;73.310;2022-08-19T10:16:01;100614.69;;;12.74;88.69
61874;BME280;49692;55.052;73.310;2022-08-19T10:18:37;100610.69;;;12.64;89.11
61874;BME280;49692;55.052;73.310;2022-08-19T10:21:17;100626.97;;;12.76;89.43
61874;BME280;49692;55.052;73.310;2022-08-19T10:23:51;100614.47;;;12.57;90.29
61874;BME280;49692;55.052;73.310;2022-08-19T10:26:28;100613.72;;;12.53;90.89
61874;BME280;49692;55.052;73.310;2022-08-19T10:28:56;100611.94;;;12.54;91.46
61874;BME280;49692;55.052;73.310;2022-08-19T10:31:34;100615.66;;;12.48;91.83
61874;BME280;49692;55.052;73.310;2022-08-19T10:34:07;100620.53;;;12.35;92.88
61874;BME280;49692;55.052;73.310;2022-08-19T10:36:36;100604.94;;;12.53;92.40
61874;BME280;49692;55.052;73.310;2022-08-19T10:39:15;100614.66;;;12.52;91.65
61874;BME280;49692;55.052;73.310;2022-08-19T10:41:47;100613.03;;;12.48;91.65
61874;BME280;49692;55.052;73.310;2022-08-19T10:44:16;100610.69;;;12.64;91.23
61874;BME280;49692;55.052;73.310;2022-08-19T10:46:44;100606.19;;;12.66;91.40
61874;BME280;49692;55.052;73.310;2022-08-19T10:49:13;100607.09;;;12.65;91.11
61874;BME280;49692;55.052;73.310;2022-08-19T10:51:41;100603.09;;;12.79;90.75
61874;BME280;49692;55.052;73.310;2022-08-19T10:54:28;100608.72;;;12.69;90.58
61874;BME280;49692;55.052;73.310;2022-08-19T10:57:14;100607.81;;;12.93;90.27
61874;BME280;49692;55.052;73.310;2022-08-19T10:59:41;100607.28;;;12.84;90.46
61874;BME280;49692;55.052;73.310;2022-08-19T11:02:10;100606.72;;;13.00;89.64
61874;BME280;49692;55.052;73.310;2022-08-19T11:04:39;100606.44;;;13.06;89.86
61874;BME280;49692;55.052;73.310;2022-08-19T11:07:08;100608.66;;;13.17;89.53
61874;BME280;49692;55.052;73.310;2022-08-19T11:09:40;100611.84;;;13.25;89.64
61874;BME280;49692;55.052;73.310;2022-08-19T11:12:09;100603.16;;;13.23;89.48
61874;BME280;49692;55.052;73.310;2022-08-19T11:14:36;100613.44;;;13.29;90.00
61874;BME280;49692;55.052;73.310;2022-08-19T11:17:04;100597.97;;;13.42;88.94
61874;BME280;49692;55.052;73.310;2022-08-19T11:19:36;100599.59;;;13.45;88.95
61874;BME280;49692;55.052;73.310;2022-08-19T11:22:09;100598.66;;;13.47;89.16
61874;BME280;49692;55.052;73.310;2022-08-19T11:24:36;100608.94;;;13.54;89.07
61874;BME280;49692;55.052;73.310;2022-08-19T11:27:06;100598.09;;;13.39;89.51
61874;BME280;49692;55.052;73.310;2022-08-19T11:29:33;100598.22;;;13.36;90.19
61874;BME280;49692;55.052;73.310;2022-08-19T11:32:09;100596.94;;;13.46;90.30
61874;BME280;49692;55.052;73.310;2022-08-19T11:34:40;100604.25;;;13.40;89.96
61874;BME280;49692;55.052;73.310;2022-08-19T11:37:12;100610.00;;;13.27;90.75
61874;BME280;49692;55.052;73.310;2022-08-19T11:39:40;100605.59;;;13.28;89.89
61874;BME280;49692;55.052;73.310;2022-08-19T11:42:07;100606.31;;;13.31;90.40
61874;BME280;49692;55.052;73.310;2022-08-19T11:44:53;100596.38;;;13.38;90.17
61874;BME280;49692;55.052;73.310;2022-08-19T11:47:20;100599.94;;;13.37;89.83
61874;BME280;49692;55.052;73.310;2022-08-19T11:49:48;100608.25;;;13.28;90.27
61874;BME280;49692;55.052;73.310;2022-08-19T11:52:18;100602.34;;;13.21;91.52
61874;BME280;49692;55.052;73.310;2022-08-19T11:54:44;100605.22;;;13.15;92.02
61874;BME280;49692;55.052;73.310;2022-08-19T11:57:12;100601.06;;;13.09;92.80
61874;BME280;49692;55.052;73.310;2022-08-19T11:59:48;100599.91;;;13.16;92.56
61874;BME280;49692;55.052;73.310;2022-08-19T12:02:15;100605.00;;;12.97;93.88
61874;BME280;49692;55.052;73.310;2022-08-19T12:04:42;100600.09;;;12.88;94.16
61874;BME280;49692;55.052;73.310;2022-08-19T12:07:12;100601.13;;;13.08;94.40
61874;BME280;49692;55.052;73.310;2022-08-19T12:09:39;100604.81;;;12.80;95.11
61874;BME280;49692;55.052;73.310;2022-08-19T12:12:09;100601.59;;;12.71;95.75
61874;BME280;49692;55.052;73.310;2022-08-19T12:14:39;100603.25;;;12.74;96.09
61874;BME280;49692;55.052;73.310;2022-08-19T12:17:07;100602.03;;;12.83;95.37
61874;BME280;49692;55.052;73.310;2022-08-19T12:19:38;100599.69;;;12.75;95.26
61874;BME280;49692;55.052;73.310;2022-08-19T12:22:05;100599.41;;;12.83;95.21
61874;BME280;49692;55.052;73.310;2022-08-19T12:24:34;100601.53;;;12.97;94.25
61874;BME280;49692;55.052;73.310;2022-08-19T12:27:04;100599.31;;;13.30;94.35
61874;BME280;49692;55.052;73.310;2022-08-19T12:29:31;100601.06;;;13.09;93.76
61874;BME280;49692;55.052;73.310;2022-08-19T12:32:01;100588.31;;;12.97;94.55
61874;BME280;49692;55.052;73.310;2022-08-19T12:34:31;100594.94;;;13.09;94.97
61874;BME280;49692;55.052;73.310;2022-08-19T12:37:04;100592.63;;;12.99;95.03
61874;BME280;49692;55.052;73.310;2022-08-19T12:39:36;100586.44;;;13.00;95.21
61874;BME280;49692;55.052;73.310;2022-08-19T12:42:04;100582.25;;;12.95;95.58
61874;BME280;49692;55.052;73.310;2022-08-19T12:44:34;100581.44;;;13.16;95.39
61874;BME280;49692;55.052;73.310;2022-08-19T12:47:05;100592.59;;;13.23;95.26
61874;BME280;49692;55.052;73.310;2022-08-19T12:49:50;100587.53;;;13.17;95.33
61874;BME280;49692;55.052;73.310;2022-08-19T12:52:35;100583.88;;;13.21;96.20
61874;BME280;49692;55.052;73.310;2022-08-19T12:55:06;100594.34;;;13.23;97.24
61874;BME280;49692;55.052;73.310;2022-08-19T12:57:37;100592.72;;;13.20;97.81
61874;BME280;49692;55.052;73.310;2022-08-19T13:00:08;100585.28;;;13.08;98.00
61874;BME280;49692;55.052;73.310;2022-08-19T13:02:45;100591.97;;;13.16;100.00
61874;BME280;49692;55.052;73.310;2022-08-19T13:05:16;100601.75;;;13.14;100.00
61874;BME280;49692;55.052;73.310;2022-08-19T13:07:50;100597.41;;;13.12;100.00
61874;BME280;49692;55.052;73.310;2022-08-19T13:10:25;100596.50;;;13.13;100.00
61874;BME280;49692;55.052;73.310;2022-08-19T13:13:08;100579.22;;;13.06;100.00
61874;BME280;49692;55.052;73.310;2022-08-19T13:15:46;100584.19;;;12.89;100.00
61874;BME280;49692;55.052;73.310;2022-08-19T13:18:21;100584.78;;;12.74;100.00
61874;BME280;49692;55.052;73.310;2022-08-19T13:21:04;100580.63;;;12.68;100.00
61874;BME280;49692;55.052;73.310;2022-08-19T13:23:43;100588.00;;;12.82;100.00